createdAt,value
2018-08-24T00:00:19.617Z,0
2018-08-24T00:01:22.010Z,0
2018-08-24T00:02:24.102Z,0
2018-08-24T00:03:26.217Z,0
2018-08-24T00:04:28.697Z,0
2018-08-24T00:05:30.796Z,0
2018-08-24T00:06:32.885Z,0
2018-08-24T00:07:35.004Z,0
2018-08-24T00:08:37.099Z,0
2018-08-24T00:09:39.588Z,0
2018-08-24T00:10:41.702Z,0
2018-08-24T00:11:43.789Z,0
2018-08-24T00:12:46.295Z,0
2018-08-24T00:13:48.700Z,0
2018-08-24T00:14:50.811Z,0
2018-08-24T00:15:52.898Z,0
2018-08-24T00:16:55.011Z,0
2018-08-24T00:17:57.107Z,0
2018-08-24T00:18:59.200Z,0
2018-08-24T00:20:01.309Z,0
2018-08-24T00:21:03.401Z,0
2018-08-24T00:22:05.508Z,0
2018-08-24T00:23:07.907Z,0
2018-08-24T00:24:10.403Z,0
2018-08-24T00:25:13.081Z,0
2018-08-24T00:26:15.182Z,0
2018-08-24T00:27:17.273Z,0
2018-08-24T00:28:19.371Z,0
2018-08-24T00:29:21.484Z,0
2018-08-24T00:30:23.580Z,0
2018-08-24T00:31:25.994Z,0
2018-08-24T00:32:28.104Z,0
2018-08-24T00:33:30.206Z,0
2018-08-24T00:34:32.595Z,0
2018-08-24T00:35:34.708Z,0
2018-08-24T00:36:36.796Z,0
2018-08-24T00:37:39.291Z,0
2018-08-24T00:38:41.696Z,0
2018-08-24T00:39:43.805Z,0
2018-08-24T00:40:45.907Z,0
2018-08-24T00:41:47.996Z,0
2018-08-24T00:42:50.146Z,0
2018-08-24T00:43:52.209Z,0
2018-08-24T00:44:54.296Z,0
2018-08-24T00:45:56.412Z,0
2018-08-24T00:46:58.507Z,0
2018-08-24T00:48:00.615Z,0
2018-08-24T00:49:03.005Z,0
2018-08-24T00:50:05.112Z,0
2018-08-24T00:51:07.212Z,0
2018-08-24T00:52:09.696Z,0
2018-08-24T00:53:11.808Z,0
2018-08-24T00:54:13.903Z,0
2018-08-24T00:55:16.005Z,0
2018-08-24T00:56:18.504Z,0
2018-08-24T00:57:20.606Z,0
2018-08-24T00:58:22.702Z,0
2018-08-24T00:59:24.807Z,0
2018-08-24T01:00:26.902Z,0
2018-08-24T01:01:29.005Z,0
2018-08-24T01:02:31.404Z,0
2018-08-24T01:03:33.889Z,0
2018-08-24T01:04:35.981Z,0
2018-08-24T01:05:38.097Z,0
2018-08-24T01:06:40.479Z,0
2018-08-24T01:07:42.684Z,0
2018-08-24T01:08:44.683Z,0
2018-08-24T01:09:46.770Z,0
2018-08-24T01:10:48.874Z,0
2018-08-24T01:11:50.976Z,0
2018-08-24T01:12:53.078Z,0
2018-08-24T01:13:55.167Z,0
2018-08-24T01:14:57.273Z,0
2018-08-24T01:15:59.374Z,0
2018-08-24T01:17:01.466Z,0
2018-08-24T01:18:03.961Z,0
2018-08-24T01:19:06.072Z,0
2018-08-24T01:20:08.171Z,0
2018-08-24T01:21:10.566Z,0
2018-08-24T01:22:13.227Z,0
2018-08-24T01:23:15.340Z,0
2018-08-24T01:24:17.740Z,0
2018-08-24T01:25:20.125Z,0
2018-08-24T01:26:22.812Z,0
2018-08-24T01:27:24.899Z,0
2018-08-24T01:28:27.393Z,0
2018-08-24T01:29:29.501Z,0
2018-08-24T01:30:31.895Z,0
2018-08-24T01:31:33.988Z,0
2018-08-24T01:32:36.092Z,0
2018-08-24T01:33:38.187Z,0
2018-08-24T01:34:40.285Z,0
2018-08-24T01:35:42.691Z,0
2018-08-24T01:36:45.084Z,0
2018-08-24T01:37:47.174Z,0
2018-08-24T01:38:49.294Z,0
2018-08-24T01:39:51.693Z,0
2018-08-24T01:40:53.786Z,0
2018-08-24T01:41:55.899Z,0
2018-08-24T01:42:57.986Z,0
2018-08-24T01:44:00.096Z,0
2018-08-24T01:45:02.196Z,0
2018-08-24T01:46:04.302Z,0
2018-08-24T01:47:06.394Z,0
2018-08-24T01:48:08.508Z,0
2018-08-24T01:49:10.622Z,0
2018-08-24T01:50:13.006Z,0
2018-08-24T01:51:15.508Z,0
2018-08-24T01:52:17.595Z,0
2018-08-24T01:53:19.701Z,0
2018-08-24T01:54:21.797Z,0
2018-08-24T01:55:23.916Z,0
2018-08-24T01:56:26.404Z,0
2018-08-24T01:57:28.502Z,0
2018-08-24T01:58:30.891Z,0
2018-08-24T01:59:33.003Z,0
2018-08-24T02:00:35.099Z,0
2018-08-24T02:01:37.485Z,0
2018-08-24T02:02:39.596Z,0
2018-08-24T02:03:42.086Z,0
2018-08-24T02:04:44.464Z,0
2018-08-24T02:05:46.573Z,0
2018-08-24T02:06:48.664Z,0
2018-08-24T02:07:50.763Z,0
2018-08-24T02:08:52.872Z,0
2018-08-24T02:09:55.264Z,0
2018-08-24T02:10:57.643Z,0
2018-08-24T02:11:59.761Z,0
2018-08-24T02:13:01.856Z,0
2018-08-24T02:14:03.957Z,0
2018-08-24T02:15:06.064Z,0
2018-08-24T02:16:08.149Z,0
2018-08-24T02:17:10.254Z,0
2018-08-24T02:18:12.367Z,0
2018-08-24T02:19:14.481Z,0
2018-08-24T02:20:16.967Z,0
2018-08-24T02:21:19.513Z,0
2018-08-24T02:22:21.612Z,0
2018-08-24T02:23:23.702Z,0
2018-08-24T02:24:25.816Z,0
2018-08-24T02:25:28.289Z,0
2018-08-24T02:26:30.689Z,0
2018-08-24T02:27:32.785Z,0
2018-08-24T02:28:34.897Z,0
2018-08-24T02:29:37.378Z,0
2018-08-24T02:30:39.480Z,0
2018-08-24T02:31:41.590Z,0
2018-08-24T02:32:44.073Z,0
2018-08-24T02:33:46.181Z,0
2018-08-24T02:34:48.281Z,0
2018-08-24T02:35:50.770Z,0
2018-08-24T02:36:52.869Z,0
2018-08-24T02:37:54.980Z,0
2018-08-24T02:38:57.073Z,0
2018-08-24T02:39:59.187Z,0
2018-08-24T02:41:01.575Z,0
2018-08-24T02:42:04.055Z,0
2018-08-24T02:43:06.159Z,0
2018-08-24T02:44:08.571Z,0
2018-08-24T02:45:10.749Z,0
2018-08-24T02:46:12.768Z,0
2018-08-24T02:47:14.868Z,0
2018-08-24T02:48:16.956Z,0
2018-08-24T02:49:19.074Z,0
2018-08-24T02:50:21.466Z,0
2018-08-24T02:51:23.861Z,0
2018-08-24T02:52:26.642Z,0
2018-08-24T02:53:29.151Z,0
2018-08-24T02:54:31.246Z,0
2018-08-24T02:55:33.643Z,0
2018-08-24T02:56:35.751Z,0
2018-08-24T02:57:37.840Z,0
2018-08-24T02:58:39.953Z,0
2018-08-24T02:59:42.345Z,0
2018-08-24T03:00:44.456Z,0
2018-08-24T03:01:46.544Z,0
2018-08-24T03:02:48.659Z,0
2018-08-24T03:03:50.761Z,0
2018-08-24T03:04:52.856Z,0
2018-08-24T03:05:54.971Z,0
2018-08-24T03:06:57.058Z,0
2018-08-24T03:07:59.158Z,0
2018-08-24T03:09:01.266Z,0
2018-08-24T03:10:03.364Z,0
2018-08-24T03:11:05.744Z,0
2018-08-24T03:12:07.845Z,0
2018-08-24T03:13:09.971Z,0
2018-08-24T03:14:12.463Z,0
2018-08-24T03:15:14.556Z,0
2018-08-24T03:16:17.073Z,0
2018-08-24T03:17:19.159Z,0
2018-08-24T03:18:21.543Z,0
2018-08-24T03:19:23.649Z,0
2018-08-24T03:20:25.759Z,0
2018-08-24T03:21:27.847Z,0
2018-08-24T03:22:29.958Z,0
2018-08-24T03:23:32.055Z,0
2018-08-24T03:24:34.450Z,0
2018-08-24T03:25:36.546Z,0
2018-08-24T03:26:38.653Z,0
2018-08-24T03:27:40.744Z,0
2018-08-24T03:28:42.915Z,0
2018-08-24T03:29:45.029Z,0
2018-08-24T03:30:47.111Z,0
2018-08-24T03:31:49.517Z,0
2018-08-24T03:32:52.300Z,0
2018-08-24T03:33:54.407Z,0
2018-08-24T03:34:56.494Z,4
2018-08-24T03:35:58.825Z,4
2018-08-24T03:37:00.923Z,4
2018-08-24T03:38:03.027Z,0
2018-08-24T03:39:05.537Z,4
2018-08-24T03:40:07.932Z,4
2018-08-24T03:41:10.038Z,8
2018-08-24T03:42:12.430Z,4
2018-08-24T03:43:14.535Z,8
2018-08-24T03:44:16.919Z,8
2018-08-24T03:45:19.023Z,12
2018-08-24T03:46:22.019Z,12
2018-08-24T03:47:24.405Z,16
2018-08-24T03:48:26.523Z,16
2018-08-24T03:49:28.925Z,20
2018-08-24T03:50:31.329Z,24
2018-08-24T03:51:33.412Z,28
2018-08-24T03:52:35.518Z,32
2018-08-24T03:53:37.977Z,36
2018-08-24T03:54:40.068Z,40
2018-08-24T03:55:42.182Z,48
2018-08-24T03:56:44.292Z,52
2018-08-24T03:57:46.774Z,60
2018-08-24T03:58:49.185Z,68
2018-08-24T03:59:51.589Z,76
2018-08-24T04:00:53.683Z,88
2018-08-24T04:01:55.791Z,96
2018-08-24T04:02:58.497Z,108
2018-08-24T04:04:00.982Z,120
2018-08-24T04:05:03.104Z,132
2018-08-24T04:06:05.195Z,148
2018-08-24T04:07:07.692Z,160
2018-08-24T04:08:09.782Z,176
2018-08-24T04:09:11.892Z,192
2018-08-24T04:10:14.287Z,208
2018-08-24T04:11:16.382Z,224
2018-08-24T04:12:18.497Z,240
2018-08-24T04:13:20.881Z,252
2018-08-24T04:14:22.983Z,272
2018-08-24T04:15:25.384Z,292
2018-08-24T04:16:27.877Z,316
2018-08-24T04:17:29.965Z,340
2018-08-24T04:18:32.464Z,372
2018-08-24T04:19:34.622Z,404
2018-08-24T04:20:37.755Z,440
2018-08-24T04:21:39.864Z,472
2018-08-24T04:22:41.964Z,504
2018-08-24T04:23:44.067Z,544
2018-08-24T04:24:46.486Z,588
2018-08-24T04:25:48.746Z,636
2018-08-24T04:26:50.677Z,676
2018-08-24T04:27:52.771Z,724
2018-08-24T04:28:55.468Z,772
2018-08-24T04:29:57.562Z,820
2018-08-24T04:31:00.441Z,872
2018-08-24T04:32:02.537Z,932
2018-08-24T04:33:04.653Z,980
2018-08-24T04:34:06.746Z,1024
2018-08-24T04:35:08.855Z,1056
2018-08-24T04:36:10.963Z,1084
2018-08-24T04:37:13.339Z,1100
2018-08-24T04:38:15.450Z,1116
2018-08-24T04:39:18.229Z,1140
2018-08-24T04:40:20.370Z,1160
2018-08-24T04:41:22.426Z,1184
2018-08-24T04:42:24.532Z,1204
2018-08-24T04:43:27.014Z,1224
2018-08-24T04:44:29.114Z,1208
2018-08-24T04:45:31.282Z,1192
2018-08-24T04:46:34.070Z,1208
2018-08-24T04:47:36.563Z,1236
2018-08-24T04:48:38.671Z,1248
2018-08-24T04:49:40.776Z,1240
2018-08-24T04:50:43.181Z,1236
2018-08-24T04:51:45.289Z,1256
2018-08-24T04:52:47.379Z,1272
2018-08-24T04:53:49.476Z,1296
2018-08-24T04:54:51.981Z,1300
2018-08-24T04:55:54.074Z,1360
2018-08-24T04:56:56.456Z,1440
2018-08-24T04:57:58.961Z,1476
2018-08-24T04:59:01.057Z,1524
2018-08-24T05:00:03.156Z,1544
2018-08-24T05:01:05.551Z,1480
2018-08-24T05:02:07.642Z,1456
2018-08-24T05:03:09.752Z,1472
2018-08-24T05:04:12.168Z,1488
2018-08-24T05:05:14.570Z,1520
2018-08-24T05:06:16.672Z,1584
2018-08-24T05:07:19.064Z,1648
2018-08-24T05:08:21.464Z,1708
2018-08-24T05:09:23.556Z,1800
2018-08-24T05:10:25.985Z,1892
2018-08-24T05:11:28.083Z,1904
2018-08-24T05:12:30.470Z,1972
2018-08-24T05:13:32.566Z,2124
2018-08-24T05:14:34.995Z,2300
2018-08-24T05:15:37.087Z,2496
2018-08-24T05:16:39.480Z,2648
2018-08-24T05:17:41.588Z,2764
2018-08-24T05:18:43.675Z,2816
2018-08-24T05:19:45.783Z,2876
2018-08-24T05:20:47.882Z,2928
2018-08-24T05:21:49.974Z,3012
2018-08-24T05:22:52.072Z,3116
2018-08-24T05:23:54.184Z,3216
2018-08-24T05:24:56.577Z,3308
2018-08-24T05:25:58.981Z,3384
2018-08-24T05:27:01.086Z,3492
2018-08-24T05:28:03.212Z,3620
2018-08-24T05:29:05.610Z,3740
2018-08-24T05:30:07.717Z,3876
2018-08-24T05:31:09.802Z,4084
2018-08-24T05:32:11.905Z,4208
2018-08-24T05:33:14.705Z,4424
2018-08-24T05:34:17.185Z,4608
2018-08-24T05:35:19.295Z,4556
2018-08-24T05:36:21.392Z,4348
2018-08-24T05:37:23.796Z,4272
2018-08-24T05:38:26.490Z,4180
2018-08-24T05:39:28.608Z,4176
2018-08-24T05:40:31.022Z,4432
2018-08-24T05:41:33.297Z,4888
2018-08-24T05:42:35.238Z,5396
2018-08-24T05:43:37.340Z,5788
2018-08-24T05:44:39.816Z,6140
2018-08-24T05:45:41.920Z,6148
2018-08-24T05:46:44.013Z,6040
2018-08-24T05:47:46.515Z,6028
2018-08-24T05:48:48.683Z,6100
2018-08-24T05:49:51.627Z,6328
2018-08-24T05:50:54.022Z,7088
2018-08-24T05:51:56.105Z,7540
2018-08-24T05:52:58.219Z,8024
2018-08-24T05:54:00.314Z,8232
2018-08-24T05:55:02.699Z,8084
2018-08-24T05:56:05.088Z,8492
2018-08-24T05:57:07.197Z,9036
2018-08-24T05:58:09.679Z,9476
2018-08-24T05:59:12.082Z,9088
2018-08-24T06:00:14.184Z,8588
2018-08-24T06:01:16.558Z,8568
2018-08-24T06:02:19.069Z,8060
2018-08-24T06:03:21.533Z,8056
2018-08-24T06:04:23.622Z,8440
2018-08-24T06:05:25.722Z,8888
2018-08-24T06:06:27.831Z,9120
2018-08-24T06:07:29.923Z,8696
2018-08-24T06:08:32.743Z,8232
2018-08-24T06:09:34.840Z,7828
2018-08-24T06:10:36.937Z,7840
2018-08-24T06:11:39.027Z,7764
2018-08-24T06:12:41.142Z,8276
2018-08-24T06:13:43.234Z,9336
2018-08-24T06:14:45.335Z,10188
2018-08-24T06:15:47.478Z,10604
2018-08-24T06:16:49.616Z,10384
2018-08-24T06:17:52.035Z,9676
2018-08-24T06:18:54.428Z,10408
2018-08-24T06:19:56.538Z,10544
2018-08-24T06:20:58.630Z,10468
2018-08-24T06:22:01.023Z,9968
2018-08-24T06:23:03.135Z,8768
2018-08-24T06:24:05.530Z,7644
2018-08-24T06:25:07.901Z,7268
2018-08-24T06:26:10.409Z,7584
2018-08-24T06:27:12.497Z,8188
2018-08-24T06:28:15.270Z,7252
2018-08-24T06:29:17.371Z,7692
2018-08-24T06:30:19.481Z,8140
2018-08-24T06:31:21.869Z,8096
2018-08-24T06:32:23.973Z,7824
2018-08-24T06:33:26.363Z,7044
2018-08-24T06:34:28.448Z,6732
2018-08-24T06:35:30.553Z,7024
2018-08-24T06:36:32.663Z,7124
2018-08-24T06:37:34.752Z,6492
2018-08-24T06:38:37.545Z,5912
2018-08-24T06:39:39.645Z,5432
2018-08-24T06:40:41.740Z,6124
2018-08-24T06:41:43.922Z,7872
2018-08-24T06:42:45.945Z,9664
2018-08-24T06:43:48.045Z,11120
2018-08-24T06:44:50.134Z,11036
2018-08-24T06:45:52.251Z,10160
2018-08-24T06:46:54.344Z,9316
2018-08-24T06:47:56.839Z,8892
2018-08-24T06:48:58.949Z,9144
2018-08-24T06:50:01.040Z,8788
2018-08-24T06:51:03.837Z,7944
2018-08-24T06:52:05.938Z,7484
2018-08-24T06:53:08.072Z,6856
2018-08-24T06:54:10.852Z,5708
2018-08-24T06:55:12.968Z,5068
2018-08-24T06:56:15.065Z,4736
2018-08-24T06:57:17.460Z,4972
2018-08-24T06:58:19.563Z,5208
2018-08-24T06:59:21.658Z,5176
2018-08-24T07:00:23.758Z,5828
2018-08-24T07:01:25.851Z,5452
2018-08-24T07:02:27.951Z,4928
2018-08-24T07:03:30.062Z,6844
2018-08-24T07:04:32.157Z,8852
2018-08-24T07:05:34.657Z,8200
2018-08-24T07:06:37.096Z,7780
2018-08-24T07:07:39.188Z,9340
2018-08-24T07:08:41.581Z,9860
2018-08-24T07:09:43.988Z,8348
2018-08-24T07:10:46.071Z,8620
2018-08-24T07:11:48.181Z,9968
2018-08-24T07:12:50.353Z,11480
2018-08-24T07:13:52.742Z,12780
2018-08-24T07:14:54.865Z,13576
2018-08-24T07:15:57.353Z,13792
2018-08-24T07:16:59.451Z,13800
2018-08-24T07:18:01.545Z,13484
2018-08-24T07:19:03.970Z,12756
2018-08-24T07:20:06.062Z,13020
2018-08-24T07:21:08.556Z,13336
2018-08-24T07:22:11.054Z,13492
2018-08-24T07:23:13.166Z,13748
2018-08-24T07:24:15.287Z,13948
2018-08-24T07:25:17.521Z,14500
2018-08-24T07:26:19.996Z,15012
2018-08-24T07:27:22.104Z,15300
2018-08-24T07:28:24.201Z,15536
2018-08-24T07:29:26.305Z,16032
2018-08-24T07:30:29.405Z,17184
2018-08-24T07:31:31.820Z,18224
2018-08-24T07:32:33.909Z,18976
2018-08-24T07:33:36.013Z,19264
2018-08-24T07:34:38.514Z,19104
2018-08-24T07:35:40.613Z,20224
2018-08-24T07:36:43.772Z,18464
2018-08-24T07:37:45.878Z,20320
2018-08-24T07:38:47.976Z,21984
2018-08-24T07:39:50.076Z,20192
2018-08-24T07:40:52.474Z,19488
2018-08-24T07:41:54.659Z,18912
2018-08-24T07:42:57.096Z,17760
2018-08-24T07:43:59.213Z,19264
2018-08-24T07:45:01.597Z,19328
2018-08-24T07:46:03.703Z,21024
2018-08-24T07:47:05.812Z,21568
2018-08-24T07:48:07.906Z,22304
2018-08-24T07:49:10.016Z,18496
2018-08-24T07:50:12.406Z,17052
2018-08-24T07:51:14.804Z,17316
2018-08-24T07:52:17.190Z,17348
2018-08-24T07:53:19.306Z,15728
2018-08-24T07:54:21.702Z,16892
2018-08-24T07:55:23.799Z,18536
2018-08-24T07:56:25.920Z,20736
2018-08-24T07:57:28.010Z,21664
2018-08-24T07:58:30.114Z,22880
2018-08-24T07:59:32.220Z,24160
2018-08-24T08:00:34.331Z,24768
2018-08-24T08:01:36.423Z,26560
2018-08-24T08:02:38.577Z,31200
2018-08-24T08:03:40.634Z,43392
2018-08-24T08:04:42.721Z,42176
2018-08-24T08:05:44.834Z,30304
2018-08-24T08:06:46.934Z,27456
2018-08-24T08:07:49.031Z,27776
2018-08-24T08:08:51.421Z,28256
2018-08-24T08:09:53.531Z,32064
2018-08-24T08:10:55.917Z,50880
2018-08-24T08:11:58.028Z,53888
2018-08-24T08:13:00.131Z,57664
2018-08-24T08:14:02.520Z,43296
2018-08-24T08:15:04.919Z,57088
2018-08-24T08:16:07.016Z,51040
2018-08-24T08:17:09.133Z,32000
2018-08-24T08:18:11.254Z,29088
2018-08-24T08:19:13.709Z,30368
2018-08-24T08:20:15.821Z,31360
2018-08-24T08:21:17.905Z,45696
2018-08-24T08:22:20.008Z,32256
2018-08-24T08:23:22.506Z,27648
2018-08-24T08:24:24.615Z,46912
2018-08-24T08:25:26.994Z,21696
2018-08-24T08:26:29.819Z,21440
2018-08-24T08:27:31.916Z,18432
2018-08-24T08:28:34.009Z,18016
2018-08-24T08:29:36.124Z,18208
2018-08-24T08:30:38.221Z,20160
2018-08-24T08:31:40.326Z,21792
2018-08-24T08:32:42.427Z,25312
2018-08-24T08:33:44.935Z,26592
2018-08-24T08:34:47.027Z,25312
2018-08-24T08:35:49.131Z,24096
2018-08-24T08:36:51.238Z,25664
2018-08-24T08:37:53.328Z,24640
2018-08-24T08:38:55.501Z,25952
2018-08-24T08:39:57.888Z,31040
2018-08-24T08:40:59.983Z,28288
2018-08-24T08:42:02.089Z,39296
2018-08-24T08:43:04.207Z,38304
2018-08-24T08:44:06.303Z,43104
2018-08-24T08:45:08.708Z,43360
2018-08-24T08:46:10.816Z,39136
2018-08-24T08:47:12.916Z,43712
2018-08-24T08:48:15.412Z,40288
2018-08-24T08:49:17.527Z,41856
2018-08-24T08:50:19.615Z,38784
2018-08-24T08:51:21.724Z,41952
2018-08-24T08:52:23.834Z,41952
2018-08-24T08:53:25.979Z,37504
2018-08-24T08:54:28.030Z,30560
2018-08-24T08:55:30.137Z,39456
2018-08-24T08:56:32.240Z,21728
2018-08-24T08:57:34.742Z,20320
2018-08-24T08:58:36.835Z,31008
2018-08-24T08:59:38.947Z,16276
2018-08-24T09:00:41.054Z,18624
2018-08-24T09:01:43.150Z,22688
2018-08-24T09:02:45.265Z,36256
2018-08-24T09:03:47.665Z,36224
2018-08-24T09:04:49.774Z,40736
2018-08-24T09:05:51.916Z,52960
2018-08-24T09:06:54.004Z,54880
2018-08-24T09:07:56.119Z,66464
2018-08-24T09:08:58.313Z,67776
2018-08-24T09:10:00.421Z,51488
2018-08-24T09:11:02.508Z,47712
2018-08-24T09:12:04.621Z,61696
2018-08-24T09:13:06.724Z,30880
2018-08-24T09:14:09.210Z,33504
2018-08-24T09:15:11.314Z,32448
2018-08-24T09:16:13.717Z,29056
2018-08-24T09:17:15.826Z,46784
2018-08-24T09:18:17.934Z,64704
2018-08-24T09:19:20.336Z,67232
2018-08-24T09:20:22.431Z,69024
2018-08-24T09:21:24.536Z,69984
2018-08-24T09:22:26.647Z,65664
2018-08-24T09:23:28.742Z,60736
2018-08-24T09:24:31.146Z,61184
2018-08-24T09:25:33.312Z,66368
2018-08-24T09:26:35.355Z,55808
2018-08-24T09:27:37.475Z,45152
2018-08-24T09:28:39.967Z,42816
2018-08-24T09:29:42.075Z,37504
2018-08-24T09:30:44.178Z,33760
2018-08-24T09:31:46.574Z,30400
2018-08-24T09:32:48.769Z,30656
2018-08-24T09:33:50.802Z,31072
2018-08-24T09:34:52.900Z,32928
2018-08-24T09:35:55.023Z,35936
2018-08-24T09:36:57.122Z,44864
2018-08-24T09:37:59.300Z,41408
2018-08-24T09:39:01.331Z,31840
2018-08-24T09:40:03.740Z,42496
2018-08-24T09:41:05.840Z,47104
2018-08-24T09:42:07.947Z,65024
2018-08-24T09:43:10.163Z,59488
2018-08-24T09:44:12.152Z,62272
2018-08-24T09:45:14.268Z,52672
2018-08-24T09:46:17.049Z,54208
2018-08-24T09:47:19.145Z,39552
2018-08-24T09:48:21.638Z,38528
2018-08-24T09:49:24.054Z,36832
2018-08-24T09:50:26.470Z,31840
2018-08-24T09:51:28.583Z,27488
2018-08-24T09:52:30.979Z,24032
2018-08-24T09:53:33.070Z,23168
2018-08-24T09:54:35.179Z,23392
2018-08-24T09:55:37.583Z,23648
2018-08-24T09:56:39.672Z,25056
2018-08-24T09:57:42.403Z,25728
2018-08-24T09:58:44.511Z,27232
2018-08-24T09:59:46.609Z,28352
2018-08-24T10:00:48.725Z,27872
2018-08-24T10:01:50.824Z,26176
2018-08-24T10:02:53.372Z,25728
2018-08-24T10:03:55.799Z,25664
2018-08-24T10:04:57.917Z,23616
2018-08-24T10:06:00.010Z,21248
2018-08-24T10:07:02.119Z,19904
2018-08-24T10:08:04.239Z,18432
2018-08-24T10:09:06.333Z,17044
2018-08-24T10:10:08.448Z,16208
2018-08-24T10:11:10.552Z,15840
2018-08-24T10:12:12.945Z,15368
2018-08-24T10:13:15.048Z,14552
2018-08-24T10:14:17.563Z,13736
2018-08-24T10:15:19.671Z,14164
2018-08-24T10:16:22.072Z,15740
2018-08-24T10:17:24.484Z,17444
2018-08-24T10:18:26.583Z,18784
2018-08-24T10:19:28.692Z,19680
2018-08-24T10:20:31.121Z,20288
2018-08-24T10:21:33.229Z,21600
2018-08-24T10:22:35.618Z,23104
2018-08-24T10:23:37.727Z,23744
2018-08-24T10:24:39.818Z,24512
2018-08-24T10:25:41.917Z,25184
2018-08-24T10:26:44.030Z,24352
2018-08-24T10:27:46.422Z,22176
2018-08-24T10:28:48.522Z,20640
2018-08-24T10:29:50.785Z,21984
2018-08-24T10:30:53.372Z,23776
2018-08-24T10:31:55.478Z,23008
2018-08-24T10:32:57.880Z,23328
2018-08-24T10:33:59.972Z,22080
2018-08-24T10:35:02.083Z,20288
2018-08-24T10:36:04.193Z,18912
2018-08-24T10:37:06.306Z,20032
2018-08-24T10:38:08.398Z,21536
2018-08-24T10:39:10.579Z,20512
2018-08-24T10:40:13.552Z,18464
2018-08-24T10:41:15.661Z,16576
2018-08-24T10:42:18.176Z,15200
2018-08-24T10:43:20.267Z,14476
2018-08-24T10:44:22.374Z,14472
2018-08-24T10:45:24.479Z,15120
2018-08-24T10:46:26.996Z,15596
2018-08-24T10:47:29.093Z,15808
2018-08-24T10:48:31.495Z,15812
2018-08-24T10:49:33.730Z,15096
2018-08-24T10:50:36.940Z,14076
2018-08-24T10:51:39.034Z,12956
2018-08-24T10:52:41.460Z,11832
2018-08-24T10:53:43.574Z,11620
2018-08-24T10:54:45.690Z,11548
2018-08-24T10:55:47.942Z,12256
2018-08-24T10:56:50.370Z,13220
2018-08-24T10:57:52.862Z,13872
2018-08-24T10:58:54.967Z,13876
2018-08-24T10:59:57.085Z,13884
2018-08-24T11:00:59.188Z,15752
2018-08-24T11:02:01.415Z,18560
2018-08-24T11:03:03.886Z,19936
2018-08-24T11:04:05.982Z,20704
2018-08-24T11:05:08.083Z,20800
2018-08-24T11:06:10.194Z,19808
2018-08-24T11:07:12.369Z,20256
2018-08-24T11:08:14.403Z,23520
2018-08-24T11:09:16.805Z,24032
2018-08-24T11:10:19.205Z,27488
2018-08-24T11:11:21.298Z,24320
2018-08-24T11:12:23.415Z,23264
2018-08-24T11:13:25.516Z,23968
2018-08-24T11:14:27.610Z,27936
2018-08-24T11:15:30.018Z,36704
2018-08-24T11:16:32.112Z,36800
2018-08-24T11:17:34.508Z,38048
2018-08-24T11:18:37.004Z,39520
2018-08-24T11:19:39.411Z,43616
2018-08-24T11:20:41.899Z,41600
2018-08-24T11:21:44.014Z,51328
2018-08-24T11:22:46.426Z,52160
2018-08-24T11:23:48.516Z,52000
2018-08-24T11:24:50.622Z,45248
2018-08-24T11:25:52.731Z,53088
2018-08-24T11:26:55.373Z,48032
2018-08-24T11:27:57.875Z,39968
2018-08-24T11:28:59.976Z,37632
2018-08-24T11:30:02.081Z,35840
2018-08-24T11:31:04.177Z,35456
2018-08-24T11:32:06.282Z,40448
2018-08-24T11:33:08.413Z,30336
2018-08-24T11:34:10.499Z,28768
2018-08-24T11:35:12.598Z,27616
2018-08-24T11:36:15.117Z,27232
2018-08-24T11:37:17.206Z,27616
2018-08-24T11:38:19.319Z,27136
2018-08-24T11:39:21.736Z,28256
2018-08-24T11:40:23.822Z,31040
2018-08-24T11:41:25.988Z,29728
2018-08-24T11:42:28.391Z,28960
2018-08-24T11:43:31.187Z,34528
2018-08-24T11:44:33.964Z,41888
2018-08-24T11:45:36.072Z,32704
2018-08-24T11:46:38.562Z,27936
2018-08-24T11:47:40.956Z,23584
2018-08-24T11:48:43.071Z,20064
2018-08-24T11:49:45.173Z,18848
2018-08-24T11:50:47.303Z,17792
2018-08-24T11:51:49.800Z,15308
2018-08-24T11:52:51.922Z,15540
2018-08-24T11:53:54.026Z,17852
2018-08-24T11:54:56.134Z,20992
2018-08-24T11:55:58.540Z,21856
2018-08-24T11:57:00.633Z,23040
2018-08-24T11:58:03.064Z,24224
2018-08-24T11:59:05.556Z,24672
2018-08-24T12:00:07.943Z,26304
2018-08-24T12:01:10.047Z,29344
2018-08-24T12:02:12.640Z,32928
2018-08-24T12:03:15.120Z,41152
2018-08-24T12:04:17.217Z,41600
2018-08-24T12:05:19.327Z,38848
2018-08-24T12:06:21.458Z,34464
2018-08-24T12:07:23.618Z,28672
2018-08-24T12:08:25.804Z,24160
2018-08-24T12:09:28.896Z,21408
2018-08-24T12:10:31.393Z,18560
2018-08-24T12:11:33.512Z,16728
2018-08-24T12:12:35.697Z,14632
2018-08-24T12:13:37.732Z,15028
2018-08-24T12:14:39.842Z,16696
2018-08-24T12:15:41.961Z,16272
2018-08-24T12:16:44.071Z,16732
2018-08-24T12:17:46.162Z,14320
2018-08-24T12:18:48.278Z,11020
2018-08-24T12:19:50.987Z,9396
2018-08-24T12:20:55.329Z,8484
2018-08-24T12:21:57.446Z,9764
2018-08-24T12:22:59.543Z,13816
2018-08-24T12:24:01.655Z,18528
2018-08-24T12:25:03.759Z,22080
2018-08-24T12:26:05.880Z,25024
2018-08-24T12:27:08.653Z,24608
2018-08-24T12:28:11.098Z,24960
2018-08-24T12:29:13.217Z,24352
2018-08-24T12:30:15.313Z,23648
2018-08-24T12:31:17.748Z,23136
2018-08-24T12:32:19.854Z,21632
2018-08-24T12:33:21.953Z,20928
2018-08-24T12:34:24.400Z,19680
2018-08-24T12:35:26.517Z,18528
2018-08-24T12:36:28.623Z,18656
2018-08-24T12:37:31.126Z,19936
2018-08-24T12:38:33.240Z,19232
2018-08-24T12:39:35.341Z,18208
2018-08-24T12:40:37.450Z,17596
2018-08-24T12:41:39.566Z,18368
2018-08-24T12:42:41.950Z,17892
2018-08-24T12:43:44.126Z,17948
2018-08-24T12:44:46.696Z,19104
2018-08-24T12:45:48.797Z,19616
2018-08-24T12:46:50.914Z,19680
2018-08-24T12:47:53.012Z,19104
2018-08-24T12:48:55.119Z,17448
2018-08-24T12:49:57.512Z,17884
2018-08-24T12:50:59.635Z,19808
2018-08-24T12:52:01.737Z,21504
2018-08-24T12:53:04.624Z,22528
2018-08-24T12:54:06.770Z,22944
2018-08-24T12:55:08.870Z,22080
2018-08-24T12:56:10.985Z,21664
2018-08-24T12:57:13.481Z,20864
2018-08-24T12:58:15.592Z,20064
2018-08-24T12:59:17.686Z,19776
2018-08-24T13:00:19.801Z,19744
2018-08-24T13:01:22.197Z,20032
2018-08-24T13:02:24.584Z,20480
2018-08-24T13:03:26.705Z,20960
2018-08-24T13:04:28.805Z,21088
2018-08-24T13:05:30.921Z,21088
2018-08-24T13:06:33.427Z,21920
2018-08-24T13:07:35.824Z,25760
2018-08-24T13:08:37.970Z,72064
2018-08-24T13:09:40.432Z,37312
2018-08-24T13:10:42.525Z,109856
2018-08-24T13:11:44.629Z,53568
2018-08-24T13:12:46.749Z,45696
2018-08-24T13:13:48.855Z,44768
2018-08-24T13:14:50.955Z,63552
2018-08-24T13:15:53.075Z,52224
2018-08-24T13:16:55.229Z,52832
2018-08-24T13:17:57.275Z,40704
2018-08-24T13:18:59.374Z,44864
2018-08-24T13:20:01.496Z,55520
2018-08-24T13:21:03.599Z,57824
2018-08-24T13:22:05.694Z,79296
2018-08-24T13:23:07.792Z,100096
2018-08-24T13:24:09.917Z,83136
2018-08-24T13:25:12.405Z,79008
2018-08-24T13:26:14.514Z,53856
2018-08-24T13:27:16.672Z,95360
2018-08-24T13:28:18.727Z,64576
2018-08-24T13:29:20.844Z,66464
2018-08-24T13:30:22.949Z,88384
2018-08-24T13:31:25.345Z,96224
2018-08-24T13:32:27.439Z,62976
2018-08-24T13:33:29.852Z,70976
2018-08-24T13:34:31.960Z,77472
2018-08-24T13:35:34.453Z,69536
2018-08-24T13:36:36.575Z,62688
2018-08-24T13:37:38.676Z,60992
2018-08-24T13:38:40.780Z,62720
2018-08-24T13:39:42.897Z,93728
2018-08-24T13:40:45.520Z,50944
2018-08-24T13:41:48.898Z,91488
2018-08-24T13:42:51.012Z,17736
2018-08-24T13:43:53.116Z,15204
2018-08-24T13:44:55.256Z,16016
2018-08-24T13:45:57.342Z,14444
2018-08-24T13:46:59.447Z,14380
2018-08-24T13:48:01.550Z,15096
2018-08-24T13:49:03.682Z,15744
2018-08-24T13:50:05.786Z,14472
2018-08-24T13:51:07.893Z,14100
2018-08-24T13:52:10.012Z,14580
2018-08-24T13:53:12.104Z,16428
2018-08-24T13:54:14.216Z,16712
2018-08-24T13:55:17.027Z,15900
2018-08-24T13:56:19.145Z,13688
2018-08-24T13:57:21.530Z,11576
2018-08-24T13:58:24.033Z,11200